createdAt,value
2023-06-18T00:02:16.719Z,17.65
2023-06-18T00:05:19.821Z,17.65
2023-06-18T00:08:24.508Z,17.57
2023-06-18T00:11:27.740Z,17.58
2023-06-18T00:14:30.331Z,17.55
2023-06-18T00:17:34.419Z,17.53
2023-06-18T00:20:37.939Z,17.42
2023-06-18T00:23:40.998Z,17.35
2023-06-18T00:26:43.891Z,17.34
2023-06-18T00:29:49.682Z,17.30
2023-06-18T00:32:52.776Z,17.33
2023-06-18T00:35:59.157Z,17.26
2023-06-18T00:39:05.083Z,17.24
2023-06-18T00:42:09.766Z,17.26
2023-06-18T00:45:13.856Z,17.26
2023-06-18T00:48:18.847Z,17.22
2023-06-18T00:51:25.305Z,17.17
2023-06-18T00:54:30.837Z,17.07
2023-06-18T00:57:36.470Z,16.94
2023-06-18T01:00:39.481Z,16.79
2023-06-18T01:03:44.138Z,16.63
2023-06-18T01:06:48.537Z,16.47
2023-06-18T01:09:55.504Z,16.48
2023-06-18T01:13:01.365Z,16.42
2023-06-18T01:16:08.662Z,16.32
2023-06-18T01:19:17.587Z,16.11
2023-06-18T01:22:21.176Z,15.94
2023-06-18T01:25:25.204Z,15.93
2023-06-18T01:28:32.067Z,15.90
2023-06-18T01:31:38.335Z,15.84
2023-06-18T01:34:41.955Z,15.83
2023-06-18T01:38:03.782Z,15.87
2023-06-18T01:41:09.941Z,15.74
2023-06-18T01:44:16.623Z,15.68
2023-06-18T01:47:20.958Z,15.72
2023-06-18T01:50:28.472Z,15.65
2023-06-18T01:53:33.108Z,15.66
2023-06-18T01:56:36.850Z,15.83
2023-06-18T01:59:42.649Z,16.06
2023-06-18T02:02:46.620Z,16.12
2023-06-18T02:05:49.606Z,16.17
2023-06-18T02:08:53.362Z,16.19
2023-06-18T02:11:56.302Z,16.21
2023-06-18T02:14:59.136Z,16.19
2023-06-18T02:18:02.328Z,16.15
2023-06-18T02:21:05.679Z,16.16
2023-06-18T02:24:09.425Z,16.25
2023-06-18T02:27:12.778Z,16.30
2023-06-18T02:30:17.995Z,16.37
2023-06-18T02:33:22.187Z,16.52
2023-06-18T02:36:27.427Z,16.57
2023-06-18T02:39:30.075Z,16.64
2023-06-18T02:42:33.837Z,16.79
2023-06-18T02:45:36.955Z,16.87
2023-06-18T02:48:40.692Z,16.77
2023-06-18T02:51:43.612Z,16.75
2023-06-18T02:54:46.915Z,16.72
2023-06-18T02:57:50.223Z,16.69
2023-06-18T03:00:52.411Z,16.65
2023-06-18T03:03:55.716Z,16.59
2023-06-18T03:07:02.210Z,16.49
2023-06-18T03:10:05.415Z,16.42
2023-06-18T03:13:08.482Z,16.29
2023-06-18T03:16:13.085Z,16.24
2023-06-18T03:19:17.829Z,16.15
2023-06-18T03:22:22.332Z,16.10
2023-06-18T03:25:26.036Z,16.04
2023-06-18T03:28:29.854Z,15.96
2023-06-18T03:31:34.482Z,15.96
2023-06-18T03:34:38.084Z,15.95
2023-06-18T03:37:40.457Z,15.91
2023-06-18T03:40:43.982Z,15.88
2023-06-18T03:43:47.258Z,15.97
2023-06-18T03:46:51.180Z,15.90
2023-06-18T03:49:53.809Z,15.96
2023-06-18T03:52:57.729Z,16.02
2023-06-18T03:56:00.464Z,16.07
2023-06-18T03:59:03.540Z,16.08
2023-06-18T04:02:07.229Z,16.17
2023-06-18T04:05:10.933Z,16.28
2023-06-18T04:08:14.588Z,16.36
2023-06-18T04:11:17.757Z,16.45
2023-06-18T04:14:20.318Z,16.45
2023-06-18T04:17:23.789Z,16.47
2023-06-18T04:20:28.677Z,16.62
2023-06-18T04:23:32.182Z,16.67
2023-06-18T04:26:35.244Z,16.79
2023-06-18T04:29:38.163Z,16.99
2023-06-18T04:32:41.629Z,17.19
2023-06-18T04:35:46.622Z,17.77
2023-06-18T04:38:49.432Z,18.79
2023-06-18T04:41:52.832Z,18.82
2023-06-18T04:44:57.719Z,18.40
2023-06-18T04:48:00.892Z,18.13
2023-06-18T04:51:04.991Z,18.14
2023-06-18T04:57:12.382Z,18.22
2023-06-18T05:00:16.154Z,18.35
2023-06-18T05:03:19.313Z,18.39
2023-06-18T05:06:22.456Z,18.47
2023-06-18T05:09:25.650Z,18.84
2023-06-18T05:12:29.072Z,19.28
2023-06-18T05:15:32.680Z,19.70
2023-06-18T05:18:38.258Z,19.87
2023-06-18T05:21:43.549Z,20.00
2023-06-18T05:24:47.485Z,20.04
2023-06-18T05:27:51.580Z,20.84
2023-06-18T05:30:55.333Z,20.94
2023-06-18T05:33:59.002Z,20.60
2023-06-18T05:37:03.029Z,20.39
2023-06-18T05:40:09.989Z,20.26
2023-06-18T05:43:14.826Z,20.22
2023-06-18T05:46:18.728Z,20.22
2023-06-18T05:49:23.774Z,20.37
2023-06-18T05:52:27.071Z,20.34
2023-06-18T05:55:29.967Z,20.24
2023-06-18T05:58:33.452Z,20.28
2023-06-18T06:01:36.388Z,20.30
2023-06-18T06:04:39.636Z,20.29
2023-06-18T06:07:42.927Z,20.53
2023-06-18T06:10:46.459Z,20.72
2023-06-18T06:13:49.024Z,20.96
2023-06-18T06:16:58.883Z,21.08
2023-06-18T06:20:03.407Z,21.26
2023-06-18T06:23:06.267Z,21.55
2023-06-18T06:26:10.081Z,21.89
2023-06-18T06:29:13.101Z,22.13
2023-06-18T06:32:16.407Z,22.55
2023-06-18T06:35:19.052Z,22.97
2023-06-18T06:38:22.049Z,22.83
2023-06-18T06:41:24.880Z,22.61
2023-06-18T06:44:27.968Z,22.60
2023-06-18T06:47:31.361Z,22.65
2023-06-18T06:50:34.857Z,22.59
2023-06-18T06:53:37.744Z,22.60
2023-06-18T06:56:40.800Z,22.81
2023-06-18T06:59:43.976Z,22.89
2023-06-18T07:02:47.326Z,23.01
2023-06-18T07:05:49.716Z,22.98
2023-06-18T07:08:54.852Z,23.35
2023-06-18T07:11:57.950Z,23.45
2023-06-18T07:15:00.594Z,23.41
2023-06-18T07:18:03.202Z,23.40
2023-06-18T07:21:06.228Z,23.29
2023-06-18T07:24:09.165Z,23.34
2023-06-18T07:27:12.925Z,24.51
2023-06-18T07:30:15.785Z,26.08
2023-06-18T07:33:19.080Z,26.78
2023-06-18T07:36:22.416Z,28.41
2023-06-18T07:39:26.441Z,28.98
2023-06-18T07:42:29.903Z,31.50
2023-06-18T07:45:32.993Z,32.72
2023-06-18T07:48:36.238Z,33.63
2023-06-18T07:51:39.411Z,34.27
2023-06-18T07:54:42.934Z,33.41
2023-06-18T07:57:45.686Z,33.53
2023-06-18T08:00:48.761Z,33.22
2023-06-18T08:03:51.377Z,33.08
2023-06-18T08:06:54.225Z,31.23
2023-06-18T08:09:57.333Z,31.18
2023-06-18T08:13:00.229Z,33.07
2023-06-18T08:16:03.344Z,34.19
2023-06-18T08:19:06.549Z,33.80
2023-06-18T08:22:09.908Z,33.95
2023-06-18T08:25:12.504Z,34.34
2023-06-18T08:28:15.470Z,34.49
2023-06-18T08:31:18.785Z,34.63
2023-06-18T08:34:22.068Z,33.92
2023-06-18T08:37:24.710Z,31.54
2023-06-18T08:40:30.113Z,29.94
2023-06-18T08:43:38.789Z,28.00
2023-06-18T08:46:44.297Z,28.07
2023-06-18T08:49:50.044Z,27.43
2023-06-18T08:52:56.264Z,27.17
2023-06-18T08:55:58.983Z,27.25
2023-06-18T08:59:03.176Z,27.16
2023-06-18T09:02:06.614Z,26.98
2023-06-18T09:05:11.577Z,27.26
2023-06-18T09:08:15.109Z,27.74
2023-06-18T09:11:17.561Z,27.70
2023-06-18T09:14:20.006Z,27.19
2023-06-18T09:17:24.095Z,27.70
2023-06-18T09:20:28.278Z,27.65
2023-06-18T09:23:31.405Z,27.52
2023-06-18T09:26:35.607Z,27.69
2023-06-18T09:29:39.078Z,27.48
2023-06-18T09:32:48.584Z,27.74
2023-06-18T09:35:58.997Z,27.40
2023-06-18T09:39:01.653Z,26.85
2023-06-18T09:42:08.774Z,27.12
2023-06-18T09:45:11.778Z,27.51
2023-06-18T09:48:14.850Z,27.74
2023-06-18T09:51:18.563Z,27.43
2023-06-18T09:54:22.658Z,27.61
2023-06-18T09:57:25.548Z,27.70
2023-06-18T10:00:29.262Z,27.39
2023-06-18T10:03:33.818Z,27.45
2023-06-18T10:06:37.368Z,27.43
2023-06-18T10:09:41.806Z,27.36
2023-06-18T10:12:50.102Z,27.51
2023-06-18T10:15:55.575Z,28.03
2023-06-18T10:19:07.043Z,28.30
2023-06-18T10:22:12.201Z,28.22
2023-06-18T10:25:15.606Z,28.32
2023-06-18T10:28:18.184Z,28.37
2023-06-18T10:31:22.199Z,28.34
2023-06-18T10:34:26.386Z,28.51
2023-06-18T10:37:32.273Z,28.32
2023-06-18T10:40:39.145Z,28.57
2023-06-18T10:43:45.219Z,28.65
2023-06-18T10:47:14.199Z,28.75
2023-06-18T10:50:19.629Z,28.87
2023-06-18T10:53:24.398Z,28.98
2023-06-18T10:56:31.868Z,29.06
2023-06-18T10:59:38.426Z,29.07
2023-06-18T11:02:41.955Z,28.60
2023-06-18T11:05:46.067Z,28.25
2023-06-18T11:08:48.658Z,28.26
2023-06-18T11:11:52.582Z,27.86
2023-06-18T11:15:08.881Z,28.04
2023-06-18T11:18:11.661Z,27.56
2023-06-18T11:21:18.957Z,27.39
2023-06-18T11:24:22.346Z,27.82
2023-06-18T11:27:26.027Z,28.63
2023-06-18T11:30:28.559Z,28.95
2023-06-18T11:33:32.732Z,28.85
2023-06-18T11:36:39.567Z,28.50
2023-06-18T11:39:42.988Z,28.63
2023-06-18T11:42:50.145Z,28.73
2023-06-18T11:45:55.132Z,29.08
2023-06-18T11:48:59.867Z,29.28
2023-06-18T11:52:02.571Z,29.55
2023-06-18T11:55:05.986Z,29.61
2023-06-18T11:58:08.939Z,29.46
2023-06-18T12:01:11.752Z,29.36
2023-06-18T12:04:14.492Z,29.45
2023-06-18T12:07:27.432Z,29.62
2023-06-18T12:10:30.109Z,29.45
2023-06-18T12:13:39.908Z,29.60
2023-06-18T12:16:43.992Z,29.54
2023-06-18T12:19:50.021Z,29.48
2023-06-18T12:22:53.557Z,29.32
2023-06-18T12:25:56.988Z,29.42
2023-06-18T12:28:59.400Z,29.55
2023-06-18T12:32:06.234Z,29.75
2023-06-18T12:35:13.024Z,29.64
2023-06-18T12:38:16.298Z,29.68
2023-06-18T12:41:27.614Z,29.34
2023-06-18T12:44:30.763Z,29.45
2023-06-18T12:47:33.900Z,29.36
2023-06-18T12:50:36.445Z,29.47
2023-06-18T12:53:39.070Z,29.48
2023-06-18T12:56:51.683Z,28.92
2023-06-18T12:59:54.676Z,29.05
2023-06-18T13:02:57.150Z,29.17
2023-06-18T13:06:00.373Z,29.33
2023-06-18T13:09:04.058Z,29.57
2023-06-18T13:12:07.236Z,29.53
2023-06-18T13:15:10.695Z,29.52
2023-06-18T13:18:14.465Z,29.50
2023-06-18T13:21:17.431Z,29.24
2023-06-18T13:24:20.174Z,29.36
2023-06-18T13:27:22.374Z,29.23
2023-06-18T13:30:25.392Z,29.25
2023-06-18T13:33:28.063Z,29.39
2023-06-18T13:36:30.652Z,29.44
2023-06-18T13:39:33.136Z,29.41
2023-06-18T13:42:35.810Z,29.33
2023-06-18T13:45:40.124Z,29.31
2023-06-18T13:48:42.929Z,29.10
2023-06-18T13:51:45.593Z,29.23
2023-06-18T13:54:48.166Z,29.13
2023-06-18T13:57:50.263Z,29.19
2023-06-18T14:00:52.648Z,28.74
2023-06-18T14:03:56.331Z,28.60
2023-06-18T14:06:59.126Z,28.48
2023-06-18T14:10:02.168Z,28.93
2023-06-18T14:13:04.664Z,28.69
2023-06-18T14:16:10.269Z,28.77
2023-06-18T14:19:17.606Z,28.81
2023-06-18T14:22:20.094Z,28.85
2023-06-18T14:25:22.648Z,28.97
2023-06-18T14:28:25.978Z,28.91
2023-06-18T14:31:29.255Z,28.92
2023-06-18T14:34:31.744Z,29.03
2023-06-18T14:37:34.055Z,28.90
2023-06-18T14:40:36.639Z,28.66
2023-06-18T14:43:39.060Z,28.59
2023-06-18T14:46:41.407Z,28.54
2023-06-18T14:49:44.230Z,28.75
2023-06-18T14:52:47.261Z,28.70
2023-06-18T14:55:50.279Z,28.76
2023-06-18T14:58:52.774Z,28.62
2023-06-18T15:01:55.568Z,28.59
2023-06-18T15:04:59.012Z,28.25
2023-06-18T15:08:02.454Z,28.29
2023-06-18T15:11:05.230Z,28.22
2023-06-18T15:14:07.828Z,28.10
2023-06-18T15:17:10.748Z,28.12
2023-06-18T15:20:15.747Z,28.13
2023-06-18T15:23:18.429Z,28.20
2023-06-18T15:26:24.083Z,28.09
2023-06-18T15:29:27.390Z,28.06
2023-06-18T15:32:30.338Z,28.08
2023-06-18T15:35:32.803Z,28.08
2023-06-18T15:38:35.872Z,28.08
2023-06-18T15:41:39.035Z,28.10
2023-06-18T15:44:42.681Z,27.85
2023-06-18T15:47:45.245Z,27.83
2023-06-18T15:50:48.707Z,27.81
2023-06-18T15:53:51.809Z,27.92
2023-06-18T15:56:55.218Z,27.79
2023-06-18T15:59:58.317Z,27.71
2023-06-18T16:03:01.341Z,27.74
2023-06-18T16:06:04.799Z,27.61
2023-06-18T16:09:08.178Z,27.57
2023-06-18T16:12:11.589Z,27.54
2023-06-18T16:15:15.692Z,27.31
2023-06-18T16:18:19.825Z,27.20
2023-06-18T16:21:23.012Z,27.19
2023-06-18T16:24:26.565Z,27.12
2023-06-18T16:27:29.496Z,27.19
2023-06-18T16:30:34.422Z,26.99
2023-06-18T16:33:37.345Z,26.91
2023-06-18T16:36:40.419Z,26.94
2023-06-18T16:39:43.417Z,26.84
2023-06-18T16:42:46.901Z,26.90
2023-06-18T16:45:49.804Z,26.90
2023-06-18T16:48:55.130Z,26.70
2023-06-18T16:51:58.648Z,26.65
2023-06-18T16:55:01.543Z,26.57
2023-06-18T16:58:04.423Z,26.63
2023-06-18T17:01:08.033Z,26.48
2023-06-18T17:04:11.368Z,26.48
2023-06-18T17:07:14.489Z,26.21
2023-06-18T17:10:17.169Z,26.26
2023-06-18T17:13:20.003Z,26.18
2023-06-18T17:16:23.957Z,26.11
2023-06-18T17:19:27.280Z,26.05
2023-06-18T17:22:30.375Z,25.90
2023-06-18T17:25:33.516Z,25.80
2023-06-18T17:28:38.101Z,25.81
2023-06-18T17:31:41.811Z,25.74
2023-06-18T17:34:44.641Z,25.64
2023-06-18T17:37:46.807Z,25.48
2023-06-18T17:40:49.518Z,25.33
2023-06-18T17:43:52.086Z,25.26
2023-06-18T17:46:55.967Z,25.23
2023-06-18T17:49:59.684Z,25.15
2023-06-18T17:53:02.803Z,25.01
2023-06-18T17:56:05.661Z,24.94
2023-06-18T17:59:08.784Z,24.85
2023-06-18T18:02:11.559Z,24.78
2023-06-18T18:05:14.762Z,24.65
2023-06-18T18:08:17.750Z,24.42
2023-06-18T18:11:22.360Z,24.22
2023-06-18T18:14:25.343Z,24.13
2023-06-18T18:17:28.364Z,23.98
2023-06-18T18:20:32.164Z,23.83
2023-06-18T18:23:35.875Z,23.67
2023-06-18T18:26:48.523Z,23.46
2023-06-18T18:29:52.118Z,23.27
2023-06-18T18:32:55.100Z,23.14
2023-06-18T18:35:59.158Z,22.96
2023-06-18T18:39:02.467Z,22.87
2023-06-18T18:42:09.054Z,22.69
2023-06-18T18:45:13.386Z,22.54
2023-06-18T18:48:16.983Z,22.40
2023-06-18T18:51:20.081Z,22.18
2023-06-18T18:54:24.601Z,22.12
2023-06-18T18:57:28.614Z,22.07
2023-06-18T19:00:32.195Z,21.89
2023-06-18T19:03:35.159Z,21.79
2023-06-18T19:06:38.317Z,21.64
2023-06-18T19:09:41.505Z,21.49
2023-06-18T19:12:45.224Z,21.39
2023-06-18T19:15:48.312Z,21.33
2023-06-18T19:18:51.927Z,21.27
2023-06-18T19:21:55.088Z,21.20
2023-06-18T19:24:57.885Z,21.09
2023-06-18T19:28:01.917Z,20.99
2023-06-18T19:31:05.109Z,20.97
2023-06-18T19:34:08.773Z,20.88
2023-06-18T19:37:11.792Z,20.71
2023-06-18T19:40:15.062Z,20.63
2023-06-18T19:43:18.604Z,20.52
2023-06-18T19:46:21.046Z,20.46
2023-06-18T19:49:23.549Z,20.36
2023-06-18T19:52:26.516Z,20.26
2023-06-18T19:55:29.848Z,20.20
2023-06-18T19:58:32.540Z,20.13
2023-06-18T20:01:35.712Z,20.05
2023-06-18T20:04:38.667Z,19.96
2023-06-18T20:07:41.499Z,19.95
2023-06-18T20:10:44.981Z,19.92
2023-06-18T20:13:48.508Z,19.82
2023-06-18T20:16:52.571Z,19.73
2023-06-18T20:19:55.738Z,19.69
2023-06-18T20:22:58.853Z,19.62
2023-06-18T20:26:02.568Z,19.59
2023-06-18T20:29:05.761Z,19.56
2023-06-18T20:32:08.910Z,19.52
2023-06-18T20:35:13.034Z,19.49
2023-06-18T20:38:16.124Z,19.49
2023-06-18T20:41:19.252Z,19.47
2023-06-18T20:44:22.614Z,19.45
2023-06-18T20:47:25.969Z,19.40
2023-06-18T20:50:29.144Z,19.34
2023-06-18T20:53:35.487Z,19.31
2023-06-18T20:56:38.523Z,19.28
2023-06-18T20:59:44.549Z,19.29
2023-06-18T21:02:47.623Z,19.28
2023-06-18T21:05:51.285Z,19.26
2023-06-18T21:08:54.220Z,19.19
2023-06-18T21:11:57.948Z,19.16
2023-06-18T21:15:01.539Z,19.11
2023-06-18T21:18:05.008Z,19.04
2023-06-18T21:21:08.541Z,18.96
2023-06-18T21:24:12.089Z,18.92
2023-06-18T21:27:16.257Z,18.88
2023-06-18T21:30:19.857Z,18.90
2023-06-18T21:33:24.008Z,18.78
2023-06-18T21:36:27.134Z,18.69
2023-06-18T21:39:32.122Z,18.62
2023-06-18T21:42:35.736Z,18.60
2023-06-18T21:45:39.142Z,18.65
2023-06-18T21:48:42.397Z,18.70
2023-06-18T21:51:45.806Z,18.71
2023-06-18T21:54:48.284Z,18.65
2023-06-18T21:57:52.397Z,18.64
2023-06-18T22:00:55.979Z,18.54
2023-06-18T22:03:59.892Z,18.47
2023-06-18T22:07:03.121Z,18.48
2023-06-18T22:10:06.754Z,18.40
2023-06-18T22:13:09.724Z,18.39
2023-06-18T22:16:12.417Z,18.34
2023-06-18T22:19:15.923Z,18.18
2023-06-18T22:22:18.713Z,18.20
2023-06-18T22:25:21.764Z,18.15
2023-06-18T22:28:24.882Z,18.16
2023-06-18T22:31:28.665Z,18.23
2023-06-18T22:34:41.306Z,18.22
2023-06-18T22:37:45.436Z,18.13
2023-06-18T22:40:48.113Z,18.08
2023-06-18T22:43:51.137Z,17.96
2023-06-18T22:46:53.970Z,17.90
2023-06-18T22:49:57.107Z,17.82
2023-06-18T22:53:00.847Z,17.68
2023-06-18T22:56:05.071Z,17.69
2023-06-18T22:59:08.521Z,17.78
2023-06-18T23:02:12.157Z,17.73
2023-06-18T23:05:16.003Z,17.75
2023-06-18T23:08:19.189Z,17.79
2023-06-18T23:11:23.545Z,17.79
2023-06-18T23:14:26.701Z,17.77
2023-06-18T23:17:30.892Z,17.65
2023-06-18T23:20:40.151Z,17.58
2023-06-18T23:23:44.120Z,17.52
2023-06-18T23:26:47.558Z,17.49
2023-06-18T23:29:50.766Z,17.44
2023-06-18T23:32:54.286Z,17.41
2023-06-18T23:35:58.791Z,17.30
2023-06-18T23:39:04.395Z,17.29
2023-06-18T23:42:08.557Z,17.21
2023-06-18T23:45:12.676Z,17.13
2023-06-18T23:48:15.917Z,17.09
2023-06-18T23:51:19.274Z,17.02
2023-06-18T23:54:22.718Z,16.96
2023-06-18T23:57:26.941Z,16.99
